Ridgecrest, CA (93555)

09:31 AM PDT am 27. März 2017 (GMT -0700)
Indian Wells Valley | | Change Station
aktive Warnung: High Wind Warning

Höhe 2333 ft 35.64 °N, 117.69 °W | Updated 15 minutes ago

Heiter
Heiter
61.3 °F
gefühlte 61.3 °F
N
11.0
Wind Wechselnd Wind aus West-Nordwest
Gusts 0.0 mph

Heute
Max. -- | schwach -- °F
--% Regenrisiko
Gestern
Max. -- | schwach -- °F
Precip. -- inch
Druck 29.90 inch
Sichtweite 10.0 Meilen
Wolken Few 7000 ft
Taupunkt 31 °F
Feuchtigkeit 32%
Regen 0.00 inch
Schneehöhe Nicht verfügbar..
6:43 AM 7:08 PM
Letztes Viertel, 0% visible
METAR KNID 271556Z 24015G22KT 10SM FEW070 16/M01 A2992 RMK AO2 PK WND 23027/1457 SLP124 T01611011 $
Druck 29.90 inch
Sichtweite 10.0 Meilen
Wolken Few 7000 ft
Taupunkt 31 °F
Feuchtigkeit 32%
Regen 0.00 inch
Schneehöhe Nicht verfügbar..
6:43 AM 7:08 PM
Letztes Viertel, 0% visible
METAR KNID 271556Z 24015G22KT 10SM FEW070 16/M01 A2992 RMK AO2 PK WND 23027/1457 SLP124 T01611011 $

Get Your Daily Forecast Email!

Thanks for signing up!

Be on the lookout for a verification email in your inbox.

You'll start receiving severe weather alerts in your inbox..

×

10-Day Weather Forecast

Almanac

Astronomie

Mar. 27, 2017 Aufgang Untergang
Genaue Zeit
Bürgerliche Dämmerung
Nautische Dämmerung
Astronomische Dämmerung
Mond
Länge des sichtbaren Lichts
Tageslänge
Tomorrow will be .
, % of the Moon is Illuminated

Heutige Rekorde

State Highs State Lows

Community

WunderPhotos

Upload Photos

1,962,540 Fotos hochgeladen!

WunderBlog® & News

Nearby

Luftqualität

  Luftqualität LQ Index Schadstoff
Not available.

Schneehöhe

Station Depth Höhe

Erdbebenaktivität

Stadt Distance Mag. Time & Date
Minimum magnitude displayed is 2.5.

Erdbebenaktivität

Stadt Distance Mag. Time & Date
Minimum magnitude displayed is 2.5.

küstennahe Wassertemperaturen

Ort Temperatur

Stations

Wetterstationen in der Umgebung

Stationsstandort Temp. Windchill Taupunkt Feuchtigkeit Wind Precip. Höhe Aktualisiert Art
                   

Watches & Warnings

High Wind Warning
Issued: 03:48 PDT Mar. 27, 2017 – National Weather Service

... High Wind Warning remains in effect from 8 am this morning to
11 PM PDT this evening...

* winds... northwest 30 to 40 mph with gusts up to 60 mph. A few of
the typically windy locations will experience wind gusts to 75 mph.

* Timing... this morning through 11 PM. The strongest winds will
occur late this afternoon into the early evening hours.

* Impacts... damaging winds will blow down trees and power lines.
Widespread power outages are expected. Travel will be
difficult, especially for high profile vehicles.

Precautionary/preparedness actions...

A High Wind Warning means a hazardous high wind event is expected
or occurring. Sustained wind speeds of at least 40 mph or gusts
of 58 mph or more can lead to property damage.